X  Zamknij Lotniskowe dane METAR        LYNI Nis Airport
Temperatura
8°C Temperatura
1°C Punkt rosy
61% Wilgotność



Wiatr
6 MPH
9 KM/H
3 M/S
5 KTS



10°
N
Warunki bieżące

Mostly Clear W większości jasne
Ciśnienie 1011 (hPa) - 29.86 (inHg)
Widoczność 6 (mil) - 10 (km)
Lotnisko
Kod lotniska LYNI

Położenie: Nis Airport
Odległość: 63 (mi)

Metar:
METAR LYNI 192330Z 01005KT CAVOK 08/01 Q1011 NOSIG

Czas: 20-04-2024 01:30 CEST